createdAt,value
2022-08-03T00:01:27.637Z,100641.84
2022-08-03T00:03:54.634Z,100647.38
2022-08-03T00:06:21.136Z,100641.28
2022-08-03T00:08:47.642Z,100646.88
2022-08-03T00:11:14.229Z,100647.91
2022-08-03T00:13:40.798Z,100638.22
2022-08-03T00:16:07.561Z,100647.34
2022-08-03T00:18:34.236Z,100642.09
2022-08-03T00:21:01.106Z,100638.56
2022-08-03T00:23:31.738Z,100638.75
2022-08-03T00:26:14.329Z,100642.44
2022-08-03T00:28:40.901Z,100639.91
2022-08-03T00:31:08.149Z,100629.31
2022-08-03T00:33:58.320Z,100630.38
2022-08-03T00:36:27.240Z,100632.25
2022-08-03T00:38:53.789Z,100627.03
2022-08-03T00:41:20.429Z,100629.84
2022-08-03T00:43:47.744Z,100631.75
2022-08-03T00:46:19.256Z,100630.09
2022-08-03T00:48:53.156Z,100623.94
2022-08-03T00:51:22.069Z,100621.34
2022-08-03T00:53:49.741Z,100620.50
2022-08-03T00:56:17.616Z,100621.50
2022-08-03T00:58:45.487Z,100624.28
2022-08-03T01:01:12.587Z,100622.59
2022-08-03T01:03:39.803Z,100623.56
2022-08-03T01:06:15.529Z,100620.09
2022-08-03T01:09:05.220Z,100617.53
2022-08-03T01:12:00.811Z,100611.38
2022-08-03T01:14:46.158Z,100612.34
2022-08-03T01:17:21.450Z,100616.03
2022-08-03T01:20:00.605Z,100623.28
2022-08-03T01:23:00.705Z,100622.53
2022-08-03T01:25:59.785Z,100616.34
2022-08-03T01:28:47.971Z,100616.44
2022-08-03T01:31:18.720Z,100611.19
2022-08-03T01:33:52.759Z,100606.81
2022-08-03T01:36:23.317Z,100612.28
2022-08-03T01:38:54.534Z,100615.94
2022-08-03T01:41:33.671Z,100620.44
2022-08-03T01:44:29.336Z,100617.84
2022-08-03T01:46:51.565Z,100622.41
2022-08-03T01:49:18.764Z,100619.78
2022-08-03T01:51:58.636Z,100618.06
2022-08-03T01:54:36.630Z,100618.97
2022-08-03T01:57:04.569Z,100614.56
2022-08-03T01:59:34.528Z,100614.59
2022-08-03T02:02:15.494Z,100620.84
2022-08-03T02:04:50.429Z,100611.94
2022-08-03T02:07:17.640Z,100611.06
2022-08-03T02:09:46.933Z,100618.31
2022-08-03T02:12:15.302Z,100614.81
2022-08-03T02:14:44.306Z,100608.59
2022-08-03T02:17:12.761Z,100614.06
2022-08-03T02:19:41.916Z,100615.03
2022-08-03T02:22:11.924Z,100612.34
2022-08-03T02:24:38.906Z,100613.31
2022-08-03T02:27:12.334Z,100612.50
2022-08-03T02:29:41.181Z,100608.97
2022-08-03T02:32:14.694Z,100610.84
2022-08-03T02:34:45.191Z,100604.66
2022-08-03T02:37:13.590Z,100610.06
2022-08-03T02:39:42.862Z,100604.78
2022-08-03T02:42:12.850Z,100612.84
2022-08-03T02:44:43.848Z,100608.44
2022-08-03T02:47:13.080Z,100609.41
2022-08-03T02:49:50.556Z,100607.66
2022-08-03T02:52:21.503Z,100605.88
2022-08-03T02:54:51.134Z,100605.91
2022-08-03T02:57:19.894Z,100608.66
2022-08-03T02:59:47.416Z,100605.09
2022-08-03T03:02:16.944Z,100605.16
2022-08-03T03:05:51.538Z,100602.56
2022-08-03T03:07:33.990Z,100596.38
2022-08-03T03:10:17.830Z,100596.38
2022-08-03T03:12:46.781Z,100597.34
2022-08-03T03:15:13.351Z,100592.03
2022-08-03T03:17:41.907Z,100595.66
2022-08-03T03:20:09.135Z,100591.28
2022-08-03T03:22:36.526Z,100594.88
2022-08-03T03:25:03.594Z,100595.84
2022-08-03T03:27:30.557Z,100595.88
2022-08-03T03:29:59.163Z,100595.06
2022-08-03T03:32:30.194Z,100593.34
2022-08-03T03:35:00.211Z,100594.22
2022-08-03T03:37:27.259Z,100594.31
2022-08-03T03:39:54.800Z,100597.91
2022-08-03T03:42:21.793Z,100602.41
2022-08-03T03:44:48.577Z,100602.44
2022-08-03T03:47:15.160Z,100599.75
2022-08-03T03:49:43.927Z,100599.81
2022-08-03T03:52:10.792Z,100593.59
2022-08-03T03:54:44.816Z,100600.75
2022-08-03T03:57:12.914Z,100606.13
2022-08-03T03:59:43.445Z,100608.78
2022-08-03T04:02:11.657Z,100607.94
2022-08-03T04:04:57.670Z,100602.59
2022-08-03T04:07:45.222Z,100604.34
2022-08-03T04:10:42.414Z,100604.34
2022-08-03T04:13:12.273Z,100605.19
2022-08-03T04:15:40.023Z,100598.06
2022-08-03T04:18:08.905Z,100603.41
2022-08-03T04:20:38.935Z,100610.47
2022-08-03T04:23:13.621Z,100602.44
2022-08-03T04:25:43.898Z,100605.13
2022-08-03T04:28:30.899Z,100611.34
2022-08-03T04:30:59.985Z,100606.81
2022-08-03T04:33:29.624Z,100611.25
2022-08-03T04:36:02.825Z,100616.53
2022-08-03T04:38:32.825Z,100615.56
2022-08-03T04:41:01.051Z,100618.22
2022-08-03T04:43:28.270Z,100622.59
2022-08-03T04:45:55.904Z,100615.38
2022-08-03T04:48:22.830Z,100619.78
2022-08-03T04:50:49.522Z,100620.59
2022-08-03T04:53:17.508Z,100620.50
2022-08-03T04:55:44.268Z,100620.34
2022-08-03T04:58:10.859Z,100624.66
2022-08-03T05:00:37.396Z,100621.91
2022-08-03T05:03:04.005Z,100630.69
2022-08-03T05:05:50.354Z,100624.25
2022-08-03T05:08:20.567Z,100630.34
2022-08-03T05:10:54.735Z,100629.31
2022-08-03T05:13:21.277Z,100633.59
2022-08-03T05:15:47.810Z,100628.91
2022-08-03T05:18:14.541Z,100633.22
2022-08-03T05:20:41.429Z,100629.50
2022-08-03T05:23:08.054Z,100632.88
2022-08-03T05:25:34.662Z,100630.88
2022-08-03T05:28:01.614Z,100626.16
2022-08-03T05:30:33.577Z,100621.50
2022-08-03T05:33:01.806Z,100627.53
2022-08-03T05:36:01.459Z,100622.97
2022-08-03T05:38:23.784Z,100626.44
2022-08-03T05:40:57.561Z,100627.25
2022-08-03T05:43:41.742Z,100632.44
2022-08-03T05:46:11.917Z,100627.81
2022-08-03T05:48:39.437Z,100632.00
2022-08-03T05:51:07.742Z,100621.00
2022-08-03T05:53:34.729Z,100611.78
2022-08-03T05:56:03.397Z,100615.13
2022-08-03T05:58:40.081Z,100614.84
2022-08-03T06:01:06.741Z,100619.03
2022-08-03T06:03:33.353Z,100616.06
2022-08-03T06:06:00.451Z,100615.75
2022-08-03T06:08:27.219Z,100613.59
2022-08-03T06:10:53.784Z,100618.56
2022-08-03T06:13:20.247Z,100613.75
2022-08-03T06:15:46.755Z,100616.16
2022-08-03T06:18:13.355Z,100617.72
2022-08-03T06:20:39.874Z,100615.59
2022-08-03T06:23:07.506Z,100612.63
2022-08-03T06:25:34.035Z,100610.47
2022-08-03T06:28:00.923Z,100619.13
2022-08-03T06:30:27.527Z,100623.25
2022-08-03T06:32:53.997Z,100626.50
2022-08-03T06:35:20.879Z,100617.28
2022-08-03T06:37:49.811Z,100624.22
2022-08-03T06:40:21.896Z,100623.81
2022-08-03T06:42:51.430Z,100623.44
2022-08-03T06:45:18.185Z,100625.00
2022-08-03T06:47:44.707Z,100622.91
2022-08-03T06:50:16.335Z,100615.41
2022-08-03T06:52:44.485Z,100631.25
2022-08-03T06:55:11.473Z,100623.66
2022-08-03T06:57:37.998Z,100630.34
2022-08-03T07:00:07.495Z,100641.72
2022-08-03T07:02:39.822Z,100632.47
2022-08-03T07:05:07.592Z,100632.91
2022-08-03T07:07:34.400Z,100630.72
2022-08-03T07:10:00.953Z,100637.53
2022-08-03T07:12:30.335Z,100646.97
2022-08-03T07:15:01.408Z,100641.84
2022-08-03T07:17:34.698Z,100648.66
2022-08-03T07:20:03.732Z,100646.41
2022-08-03T07:22:30.246Z,100650.53
2022-08-03T07:24:57.137Z,100646.50
2022-08-03T07:27:23.770Z,100647.13
2022-08-03T07:29:50.492Z,100650.41
2022-08-03T07:32:17.332Z,100647.28
2022-08-03T07:34:44.003Z,100647.81
2022-08-03T07:37:11.333Z,100656.56
2022-08-03T07:39:37.910Z,100652.59
2022-08-03T07:42:04.482Z,100657.63
2022-08-03T07:44:30.937Z,100654.50
2022-08-03T07:46:57.789Z,100660.31
2022-08-03T07:49:24.930Z,100659.09
2022-08-03T07:52:11.738Z,100652.50
2022-08-03T07:54:39.180Z,100649.31
2022-08-03T07:57:05.702Z,100647.13
2022-08-03T07:59:56.423Z,100647.94
2022-08-03T08:02:19.225Z,100646.63
2022-08-03T08:04:45.742Z,100642.72
2022-08-03T08:07:12.256Z,100639.59
2022-08-03T08:09:38.924Z,100643.66
2022-08-03T08:12:05.937Z,100644.97
2022-08-03T08:14:42.495Z,100644.59
2022-08-03T08:17:08.984Z,100645.16
2022-08-03T08:19:36.808Z,100642.09
2022-08-03T08:22:07.999Z,100643.56
2022-08-03T08:24:36.948Z,100636.81
2022-08-03T08:27:03.497Z,100640.00
2022-08-03T08:29:31.097Z,100637.78
2022-08-03T08:31:57.581Z,100635.72
2022-08-03T08:34:24.117Z,100642.66
2022-08-03T08:36:50.565Z,100636.06
2022-08-03T08:39:17.610Z,100630.53
2022-08-03T08:41:46.430Z,100633.75
2022-08-03T08:44:14.523Z,100637.94
2022-08-03T08:46:41.322Z,100632.25
2022-08-03T08:49:09.728Z,100627.38
2022-08-03T08:51:54.827Z,100627.31
2022-08-03T08:54:26.955Z,100626.91
2022-08-03T08:56:56.331Z,100627.44
2022-08-03T08:59:24.181Z,100630.59
2022-08-03T09:01:50.685Z,100628.38
2022-08-03T09:04:17.668Z,100630.75
2022-08-03T09:06:58.657Z,100624.97
2022-08-03T09:10:08.397Z,100631.84
2022-08-03T09:12:39.047Z,100631.78
2022-08-03T09:15:25.365Z,100618.81
2022-08-03T09:17:54.712Z,100625.66
2022-08-03T09:20:23.089Z,100624.28
2022-08-03T09:23:19.143Z,100621.47
2022-08-03T09:25:59.810Z,100625.88
2022-08-03T09:28:56.477Z,100626.91
2022-08-03T09:31:39.653Z,100626.03
2022-08-03T09:34:11.840Z,100624.88
2022-08-03T09:36:49.560Z,100618.16
2022-08-03T09:39:18.466Z,100618.78
2022-08-03T09:41:48.174Z,100615.00
2022-08-03T09:44:25.483Z,100610.25
2022-08-03T09:46:56.526Z,100615.69
2022-08-03T09:49:24.297Z,100617.47
2022-08-03T09:52:31.834Z,100617.09
2022-08-03T09:54:38.164Z,100615.00
2022-08-03T09:57:04.834Z,100617.56
2022-08-03T09:59:33.701Z,100606.34
2022-08-03T10:02:00.862Z,100607.84
2022-08-03T10:04:28.389Z,100606.66
2022-08-03T10:07:11.304Z,100612.25
2022-08-03T10:09:38.226Z,100611.91
2022-08-03T10:12:13.244Z,100613.75
2022-08-03T10:14:42.083Z,100600.94
2022-08-03T10:17:09.570Z,100610.41
2022-08-03T10:19:36.523Z,100611.81
2022-08-03T10:22:15.307Z,100606.84
2022-08-03T10:25:16.449Z,100602.72
2022-08-03T10:27:51.021Z,100603.16
2022-08-03T10:30:17.688Z,100597.50
2022-08-03T10:32:52.413Z,100594.88
2022-08-03T10:35:21.695Z,100591.19
2022-08-03T10:37:56.485Z,100590.13
2022-08-03T10:40:46.863Z,100593.06
2022-08-03T10:43:21.476Z,100597.56
2022-08-03T10:45:48.199Z,100592.50
2022-08-03T10:48:16.392Z,100596.09
2022-08-03T10:50:44.133Z,100589.44
2022-08-03T10:53:10.666Z,100587.38
2022-08-03T10:56:03.939Z,100590.00
2022-08-03T10:58:57.068Z,100583.19
2022-08-03T11:01:59.525Z,100583.19
2022-08-03T11:04:29.377Z,100581.94
2022-08-03T11:07:21.920Z,100588.16
2022-08-03T11:09:53.685Z,100580.88
2022-08-03T11:12:30.116Z,100586.31
2022-08-03T11:15:01.313Z,100572.50
2022-08-03T11:17:28.021Z,100581.66
2022-08-03T11:19:57.692Z,100578.63
2022-08-03T11:22:25.127Z,100577.34
2022-08-03T11:24:53.984Z,100570.72
2022-08-03T11:27:22.440Z,100576.97
2022-08-03T11:30:09.553Z,100571.56
2022-08-03T11:32:46.720Z,100564.78
2022-08-03T11:35:33.611Z,100569.81
2022-08-03T11:38:03.377Z,100573.81
2022-08-03T11:40:45.749Z,100568.50
2022-08-03T11:43:31.962Z,100564.16
2022-08-03T11:46:13.654Z,100562.47
2022-08-03T11:49:05.343Z,100560.19
2022-08-03T11:51:37.974Z,100568.78
2022-08-03T11:54:06.288Z,100565.50
2022-08-03T11:56:45.792Z,100558.53
2022-08-03T11:59:19.909Z,100558.56
2022-08-03T12:01:47.611Z,100561.84
2022-08-03T12:04:16.162Z,100560.81
2022-08-03T12:06:58.322Z,100560.34
2022-08-03T12:09:25.010Z,100564.06
2022-08-03T12:11:59.867Z,100553.38
2022-08-03T12:14:49.277Z,100548.97
2022-08-03T12:17:15.087Z,100549.50
2022-08-03T12:19:42.862Z,100554.66
2022-08-03T12:22:09.436Z,100548.72
2022-08-03T12:24:43.268Z,100548.31
2022-08-03T12:27:09.888Z,100549.63
2022-08-03T12:29:36.827Z,100557.91
2022-08-03T12:32:03.552Z,100557.09
2022-08-03T12:34:47.572Z,100552.59
2022-08-03T12:37:22.278Z,100539.44
2022-08-03T12:40:07.860Z,100541.41
2022-08-03T12:42:39.249Z,100540.50
2022-08-03T12:45:27.144Z,100537.91
2022-08-03T12:48:02.052Z,100542.59
2022-08-03T12:50:31.857Z,100536.84
2022-08-03T12:53:00.088Z,100538.59
2022-08-03T12:55:57.785Z,100542.09
2022-08-03T12:58:34.554Z,100521.28
2022-08-03T13:01:05.263Z,100523.38
2022-08-03T13:03:42.205Z,100520.81
2022-08-03T13:06:21.081Z,100524.47
2022-08-03T13:08:48.949Z,100527.22
2022-08-03T13:11:20.544Z,100530.84
2022-08-03T13:13:47.134Z,100513.34
2022-08-03T13:16:18.997Z,100532.81
2022-08-03T13:18:46.594Z,100524.94
2022-08-03T13:21:18.984Z,100516.97
2022-08-03T13:23:46.316Z,100515.41
2022-08-03T13:26:13.481Z,100521.09
2022-08-03T13:28:40.274Z,100522.38
2022-08-03T13:31:07.139Z,100519.44
2022-08-03T13:33:33.888Z,100520.34
2022-08-03T13:36:00.404Z,100519.25
2022-08-03T13:38:27.311Z,100515.06
2022-08-03T13:40:55.170Z,100519.41
2022-08-03T13:43:22.504Z,100516.91
2022-08-03T13:45:53.514Z,100511.78
2022-08-03T13:48:36.649Z,100515.75
2022-08-03T13:51:21.758Z,100502.84
2022-08-03T13:53:50.795Z,100512.63
2022-08-03T13:56:17.318Z,100511.72
2022-08-03T13:58:43.915Z,100503.84
2022-08-03T14:01:11.234Z,100500.00
2022-08-03T14:03:37.812Z,100496.19
2022-08-03T14:06:04.619Z,100499.97
2022-08-03T14:08:31.956Z,100497.84
2022-08-03T14:10:58.622Z,100492.13
2022-08-03T14:13:25.205Z,100499.97
2022-08-03T14:15:51.931Z,100488.13
2022-08-03T14:18:28.270Z,100490.00
2022-08-03T14:21:01.981Z,100492.25
2022-08-03T14:23:32.584Z,100496.28
2022-08-03T14:25:59.649Z,100491.50
2022-08-03T14:28:26.152Z,100493.63
2022-08-03T14:30:53.992Z,100492.53
2022-08-03T14:33:20.891Z,100488.06
2022-08-03T14:35:48.203Z,100486.97
2022-08-03T14:38:15.580Z,100491.56
2022-08-03T14:40:42.191Z,100489.06
2022-08-03T14:43:08.851Z,100490.03
2022-08-03T14:45:35.420Z,100484.72
2022-08-03T14:50:33.784Z,100482.22
2022-08-03T14:50:51.820Z,100473.31
2022-08-03T14:53:19.393Z,100469.31
2022-08-03T14:55:49.863Z,100478.91
2022-08-03T14:58:22.417Z,100473.13
2022-08-03T15:00:50.836Z,100476.84
2022-08-03T15:03:21.490Z,100479.06
2022-08-03T15:05:48.132Z,100475.03
2022-08-03T15:08:14.717Z,100465.56
2022-08-03T15:10:45.279Z,100473.81
2022-08-03T15:13:12.982Z,100463.84
2022-08-03T15:15:39.763Z,100459.09
2022-08-03T15:18:06.711Z,100461.91
2022-08-03T15:20:43.965Z,100462.69
2022-08-03T15:23:12.838Z,100456.97
2022-08-03T15:26:29.083Z,100454.50
2022-08-03T15:28:26.085Z,100462.88
2022-08-03T15:30:53.037Z,100451.09
2022-08-03T15:33:19.726Z,100451.94
2022-08-03T15:35:47.424Z,100457.19
2022-08-03T15:38:13.947Z,100447.91
2022-08-03T15:40:40.538Z,100448.16
2022-08-03T15:43:07.334Z,100457.06
2022-08-03T15:45:36.153Z,100452.56
2022-08-03T15:48:06.429Z,100458.94
2022-08-03T15:50:32.974Z,100449.31
2022-08-03T15:52:59.579Z,100440.53
2022-08-03T15:55:26.231Z,100439.03
2022-08-03T15:59:03.480Z,100443.81
2022-08-03T16:00:40.492Z,100436.03
2022-08-03T16:03:07.058Z,100434.44
2022-08-03T16:05:34.162Z,100439.41
2022-08-03T16:08:03.770Z,100440.94
2022-08-03T16:10:31.965Z,100437.38
2022-08-03T16:13:00.112Z,100435.91
2022-08-03T16:15:27.548Z,100434.69
2022-08-03T16:17:54.657Z,100434.22
2022-08-03T16:20:33.922Z,100433.47
2022-08-03T16:23:10.515Z,100434.50
2022-08-03T16:25:39.188Z,100434.97
2022-08-03T16:28:12.783Z,100432.22
2022-08-03T16:30:41.720Z,100425.38
2022-08-03T16:33:08.494Z,100430.53
2022-08-03T16:35:35.089Z,100435.91
2022-08-03T16:38:03.561Z,100430.34
2022-08-03T16:40:33.379Z,100432.88
2022-08-03T16:42:59.887Z,100439.00
2022-08-03T16:45:26.472Z,100434.41
2022-08-03T16:48:01.827Z,100431.69
2022-08-03T16:50:33.074Z,100439.69
2022-08-03T16:52:59.679Z,100442.03
2022-08-03T16:55:48.496Z,100434.59
2022-08-03T16:58:15.148Z,100437.97
2022-08-03T17:00:43.018Z,100443.72
2022-08-03T17:03:19.135Z,100447.34
2022-08-03T17:05:50.874Z,100449.94
2022-08-03T17:08:26.969Z,100434.34
2022-08-03T17:10:55.312Z,100436.09
2022-08-03T17:13:40.011Z,100438.72
2022-08-03T17:16:10.044Z,100437.59
2022-08-03T17:18:47.347Z,100433.56
2022-08-03T17:21:15.915Z,100434.94
2022-08-03T17:24:12.357Z,100442.03
2022-08-03T17:26:46.045Z,100440.28
2022-08-03T17:29:18.878Z,100432.97
2022-08-03T17:31:53.134Z,100429.75
2022-08-03T17:34:21.022Z,100428.25
2022-08-03T17:37:27.200Z,100431.88
2022-08-03T17:39:58.283Z,100433.84
2022-08-03T17:42:30.851Z,100431.31
2022-08-03T17:45:07.311Z,100434.28
2022-08-03T17:47:42.073Z,100430.34
2022-08-03T17:50:25.203Z,100439.06
2022-08-03T17:53:07.277Z,100440.34
2022-08-03T17:55:55.829Z,100443.38
2022-08-03T17:58:33.700Z,100435.59
2022-08-03T18:01:58.314Z,100443.56
2022-08-03T18:04:11.088Z,100436.22
2022-08-03T18:06:56.406Z,100436.34
2022-08-03T18:10:04.315Z,100447.25
2022-08-03T18:12:25.012Z,100440.72
2022-08-03T18:15:08.406Z,100435.78
2022-08-03T18:17:55.683Z,100444.97
2022-08-03T18:20:34.271Z,100436.41
2022-08-03T18:23:09.586Z,100440.19
2022-08-03T18:25:44.966Z,100441.25
2022-08-03T18:28:16.542Z,100441.97
2022-08-03T18:30:53.147Z,100441.88
2022-08-03T18:34:19.271Z,100440.53
2022-08-03T18:36:18.033Z,100439.97
2022-08-03T18:38:51.705Z,100436.19
2022-08-03T18:41:32.224Z,100445.84
2022-08-03T18:44:08.496Z,100437.31
2022-08-03T18:46:50.730Z,100440.69
2022-08-03T18:49:54.030Z,100447.75
2022-08-03T18:53:02.599Z,100444.09
2022-08-03T18:55:33.513Z,100450.91
2022-08-03T18:58:17.963Z,100453.19
2022-08-03T19:01:01.035Z,100451.78
2022-08-03T19:03:42.981Z,100453.88
2022-08-03T19:06:19.867Z,100451.34
2022-08-03T19:09:00.429Z,100455.34
2022-08-03T19:12:12.363Z,100459.13
2022-08-03T19:14:44.309Z,100457.47
2022-08-03T19:17:12.059Z,100451.97
2022-08-03T19:19:44.885Z,100457.41
2022-08-03T19:22:15.986Z,100458.25
2022-08-03T19:24:47.019Z,100457.31
2022-08-03T19:27:14.245Z,100452.56
2022-08-03T19:29:58.398Z,100454.28
2022-08-03T19:32:31.994Z,100452.47
2022-08-03T19:35:03.855Z,100453.19
2022-08-03T19:37:38.164Z,100461.13
2022-08-03T19:40:10.783Z,100453.56
2022-08-03T19:42:44.671Z,100455.16
2022-08-03T19:45:15.426Z,100455.69
2022-08-03T19:47:52.342Z,100459.00
2022-08-03T19:50:20.387Z,100454.19
2022-08-03T19:52:49.691Z,100459.19
2022-08-03T19:55:18.003Z,100464.22
2022-08-03T19:57:49.395Z,100461.13
2022-08-03T20:00:19.470Z,100458.91
2022-08-03T20:02:46.485Z,100452.22
2022-08-03T20:05:15.268Z,100456.22
2022-08-03T20:07:47.473Z,100454.91
2022-08-03T20:10:16.141Z,100454.38
2022-08-03T20:12:44.606Z,100461.16
2022-08-03T20:15:12.013Z,100457.94
2022-08-03T20:17:54.970Z,100453.81
2022-08-03T20:20:35.932Z,100465.03
2022-08-03T20:23:25.767Z,100459.06
2022-08-03T20:26:05.084Z,100458.53
2022-08-03T20:28:50.060Z,100460.69
2022-08-03T20:31:18.908Z,100454.72
2022-08-03T20:33:49.187Z,100454.09
2022-08-03T20:36:17.747Z,100464.34
2022-08-03T20:38:47.284Z,100465.53
2022-08-03T20:41:15.832Z,100469.50
2022-08-03T20:43:42.409Z,100462.63
2022-08-03T20:46:29.584Z,100465.63
2022-08-03T20:48:58.892Z,100468.69
2022-08-03T20:51:49.896Z,100461.81
2022-08-03T20:54:22.448Z,100462.09
2022-08-03T20:56:56.721Z,100463.34
2022-08-03T20:59:24.460Z,100466.25
2022-08-03T21:01:50.992Z,100463.81
2022-08-03T21:04:20.949Z,100461.41
2022-08-03T21:07:03.488Z,100452.59
2022-08-03T21:09:57.049Z,100457.34
2022-08-03T21:12:34.890Z,100451.34
2022-08-03T21:15:07.580Z,100464.13
2022-08-03T21:17:41.996Z,100458.03
2022-08-03T21:20:11.335Z,100465.47
2022-08-03T21:22:39.788Z,100463.84
2022-08-03T21:25:09.382Z,100461.44
2022-08-03T21:27:36.729Z,100460.69
2022-08-03T21:30:07.329Z,100455.56
2022-08-03T21:32:34.292Z,100463.00
2022-08-03T21:35:01.338Z,100456.91
2022-08-03T21:37:28.690Z,100456.16
2022-08-03T21:39:56.480Z,100457.22
2022-08-03T21:42:23.990Z,100458.28
2022-08-03T21:44:54.014Z,100459.34
2022-08-03T21:47:22.719Z,100458.69
2022-08-03T21:50:08.548Z,100462.53
2022-08-03T21:52:41.986Z,100463.66
2022-08-03T21:55:18.434Z,100455.78
2022-08-03T21:57:52.905Z,100460.50
2022-08-03T22:00:22.112Z,100467.03
2022-08-03T22:02:55.506Z,100474.47
2022-08-03T22:05:28.100Z,100476.63
2022-08-03T22:08:09.691Z,100473.28
2022-08-03T22:10:36.906Z,100477.06
2022-08-03T22:13:03.574Z,100479.09
2022-08-03T22:15:30.862Z,100479.31
2022-08-03T22:17:58.792Z,100466.03
2022-08-03T22:20:25.599Z,100470.75
2022-08-03T22:22:58.951Z,100469.09
2022-08-03T22:25:29.059Z,100471.91
2022-08-03T22:27:57.699Z,100468.47
2022-08-03T22:30:24.582Z,100468.56
2022-08-03T22:32:53.791Z,100471.41
2022-08-03T22:35:21.320Z,100474.22
2022-08-03T22:37:53.977Z,100480.66
2022-08-03T22:40:21.164Z,100470.03
2022-08-03T22:42:50.599Z,100477.44
2022-08-03T22:46:06.228Z,100484.75
2022-08-03T22:48:07.742Z,100481.25
2022-08-03T22:50:35.141Z,100480.53
2022-08-03T22:53:02.290Z,100485.09
2022-08-03T22:55:29.241Z,100480.69
2022-08-03T22:57:56.496Z,100481.75
2022-08-03T23:00:23.650Z,100485.41
2022-08-03T23:02:51.285Z,100476.63
2022-08-03T23:06:00.305Z,100475.88
2022-08-03T23:08:14.532Z,100475.94
2022-08-03T23:10:46.755Z,100480.56
2022-08-03T23:13:17.367Z,100480.63
2022-08-03T23:15:49.618Z,100477.19
2022-08-03T23:18:18.428Z,100480.00
2022-08-03T23:20:45.232Z,100479.16
2022-08-03T23:23:14.589Z,100474.81
2022-08-03T23:25:47.667Z,100479.44
2022-08-03T23:28:16.167Z,100478.66
2022-08-03T23:30:44.505Z,100483.34
2022-08-03T23:33:15.793Z,100480.78
2022-08-03T23:36:20.090Z,100489.84
2022-08-03T23:38:46.153Z,100474.75
2022-08-03T23:41:13.612Z,100491.03
2022-08-03T23:43:51.353Z,100489.38
2022-08-03T23:46:21.991Z,100485.84
2022-08-03T23:48:48.611Z,100490.47
2022-08-03T23:51:36.594Z,100487.91
2022-08-03T23:54:28.132Z,100484.47
2022-08-03T23:57:03.249Z,100484.66
2022-08-03T23:59:59.496Z,100479.41
